Atmautluak, Alaska
Current Conditions -  °F | °C
As of 3:53 AM on Saturday 22 Nov 2014 (Local Time) from PABE Reporting Station
Scattered Clouds Scattered Clouds  
Wind Chill:   Ceiling: Unl
Heat Index: 18°   Visibility: 10mi
Dew Point: 13°   Wind: 15mph
Humidity: 81%   Direction: 30°NNE
Pressure: 28.98"   Gusts: NA
Location:  60.7494°N, 161.727°W
Report Text: PABE 221253Z 03013KT 10SM SCT200 M08/M11 A2898 RMK AO2 SLP816 T10781106
Loading
Personal Weather Stations






























Interactive Weather Map New forecast layout! Learn more

10-Day Weather Forecast

Advertisements
Track Severe Weather on mobile